createdAt,value
2018-02-07T00:00:58.340Z,28.13
2018-02-07T00:03:27.221Z,27.27
2018-02-07T00:05:55.346Z,26.77
2018-02-07T00:08:23.453Z,25.93
2018-02-07T00:10:51.590Z,26.20
2018-02-07T00:13:19.712Z,29.97
2018-02-07T00:15:47.834Z,26.67
2018-02-07T00:18:15.943Z,27.77
2018-02-07T00:20:44.091Z,27.17
2018-02-07T00:23:12.199Z,27.13
2018-02-07T00:25:40.319Z,25.37
2018-02-07T00:28:08.426Z,27.20
2018-02-07T00:30:36.579Z,29.67
2018-02-07T00:33:04.694Z,28.23
2018-02-07T00:35:33.592Z,26.90
2018-02-07T00:38:02.464Z,25.83
2018-02-07T00:40:30.604Z,26.70
2018-02-07T00:42:58.713Z,27.03
2018-02-07T00:45:26.843Z,27.60
2018-02-07T00:47:54.947Z,26.53
2018-02-07T00:50:23.058Z,26.07
2018-02-07T00:52:51.195Z,23.90
2018-02-07T00:55:19.308Z,27.10
2018-02-07T00:57:47.430Z,27.57
2018-02-07T01:00:15.547Z,27.83
2018-02-07T01:02:43.678Z,26.50
2018-02-07T01:05:11.797Z,25.20
2018-02-07T01:07:40.681Z,27.20
2018-02-07T01:10:09.555Z,24.37
2018-02-07T01:12:37.691Z,26.67
2018-02-07T01:15:05.801Z,25.93
2018-02-07T01:17:33.925Z,27.07
2018-02-07T01:20:02.040Z,26.80
2018-02-07T01:22:30.183Z,26.73
2018-02-07T01:24:58.306Z,25.40
2018-02-07T01:27:27.194Z,23.97
2018-02-07T01:29:56.063Z,26.27
2018-02-07T01:32:24.208Z,26.47
2018-02-07T01:34:52.317Z,26.63
2018-02-07T01:37:20.466Z,24.10
2018-02-07T01:39:48.574Z,25.90
2018-02-07T01:42:17.470Z,24.40
2018-02-07T01:44:46.344Z,24.80
2018-02-07T01:47:14.479Z,27.47
2018-02-07T01:49:42.594Z,26.57
2018-02-07T01:52:10.715Z,27.30
2018-02-07T01:54:38.826Z,26.27
2018-02-07T01:57:06.949Z,25.90
2018-02-07T01:59:35.056Z,26.10
2018-02-07T02:02:03.187Z,24.90
2018-02-07T02:04:31.290Z,25.00
2018-02-07T02:06:59.415Z,26.20
2018-02-07T02:09:28.294Z,28.30
2018-02-07T02:11:57.190Z,26.37
2018-02-07T02:14:26.066Z,27.10
2018-02-07T02:16:54.206Z,24.93
2018-02-07T02:19:22.381Z,26.87
2018-02-07T02:21:50.478Z,26.53
2018-02-07T02:24:18.595Z,26.17
2018-02-07T02:26:46.757Z,25.33
2018-02-07T02:29:15.627Z,23.80
2018-02-07T02:31:43.764Z,26.37
2018-02-07T02:34:11.881Z,24.20
2018-02-07T02:36:40.846Z,25.57
2018-02-07T02:39:08.949Z,27.10
2018-02-07T02:41:37.840Z,28.43
2018-02-07T02:44:06.717Z,27.93
2018-02-07T02:46:34.864Z,28.07
2018-02-07T02:49:03.026Z,25.70
2018-02-07T02:51:31.184Z,26.37
2018-02-07T02:53:59.282Z,26.77
2018-02-07T02:56:27.418Z,26.10
2018-02-07T02:58:55.522Z,25.47
2018-02-07T03:01:23.678Z,25.07
2018-02-07T03:03:51.782Z,25.40
2018-02-07T03:06:19.907Z,25.93
2018-02-07T03:08:48.039Z,27.60
2018-02-07T03:11:16.163Z,25.93
2018-02-07T03:13:44.297Z,25.60
2018-02-07T03:16:12.398Z,25.80
2018-02-07T03:18:40.524Z,32.03
2018-02-07T03:21:08.626Z,26.07
2018-02-07T03:23:37.530Z,26.23
2018-02-07T03:26:05.643Z,26.07
2018-02-07T03:28:33.786Z,26.27
2018-02-07T03:31:01.889Z,28.03
2018-02-07T03:33:30.015Z,25.33
2018-02-07T03:35:58.887Z,25.80
2018-02-07T03:38:27.027Z,25.80
2018-02-07T03:40:55.146Z,24.33
2018-02-07T03:43:24.043Z,27.30
2018-02-07T03:45:52.920Z,25.23
2018-02-07T03:48:21.050Z,27.80
2018-02-07T03:50:49.151Z,25.63
2018-02-07T03:53:17.286Z,26.33
2018-02-07T03:55:45.398Z,27.27
2018-02-07T03:58:13.530Z,28.43
2018-02-07T04:00:41.643Z,26.37
2018-02-07T04:03:09.783Z,26.23
2018-02-07T04:05:37.895Z,26.93
2018-02-07T04:08:06.030Z,25.20
2018-02-07T04:10:34.135Z,25.00
2018-02-07T04:13:02.273Z,26.90
2018-02-07T04:15:30.395Z,25.83
2018-02-07T04:17:59.299Z,25.53
2018-02-07T04:20:28.180Z,26.10
2018-02-07T04:22:57.078Z,25.07
2018-02-07T04:25:25.957Z,25.53
2018-02-07T04:27:54.091Z,26.50
2018-02-07T04:30:22.652Z,26.80
2018-02-07T04:32:51.835Z,27.03
2018-02-07T04:35:19.938Z,25.40
2018-02-07T04:37:48.095Z,27.10
2018-02-07T04:40:16.354Z,26.30
2018-02-07T04:42:44.531Z,27.50
2018-02-07T04:45:13.405Z,27.30
2018-02-07T04:47:41.537Z,26.33
2018-02-07T04:50:09.630Z,25.57
2018-02-07T04:52:37.754Z,25.83
2018-02-07T04:55:05.850Z,26.63
2018-02-07T04:57:34.007Z,27.57
2018-02-07T05:00:02.115Z,27.67
2018-02-07T05:02:36.875Z,27.03
2018-02-07T05:05:05.742Z,29.67
2018-02-07T05:07:33.881Z,28.07
2018-02-07T05:10:01.992Z,25.70
2018-02-07T05:12:30.111Z,24.83
2018-02-07T05:14:58.218Z,25.80
2018-02-07T05:17:26.357Z,25.47
2018-02-07T05:19:54.464Z,24.13
2018-02-07T05:22:22.599Z,27.00
2018-02-07T05:24:50.715Z,24.73
2018-02-07T05:27:18.837Z,23.67
2018-02-07T05:29:47.706Z,24.30
2018-02-07T05:32:15.834Z,26.20
2018-02-07T05:34:43.942Z,25.90
2018-02-07T05:37:12.083Z,26.47
2018-02-07T05:39:40.190Z,25.87
2018-02-07T05:42:14.039Z,25.07
2018-02-07T05:44:42.143Z,26.00
2018-02-07T05:47:10.252Z,24.57
2018-02-07T05:49:38.383Z,23.47
2018-02-07T05:52:06.495Z,24.97
2018-02-07T05:54:34.619Z,24.33
2018-02-07T05:57:02.719Z,25.93
2018-02-07T05:59:30.851Z,25.27
2018-02-07T06:01:58.949Z,24.33
2018-02-07T06:04:27.079Z,24.27
2018-02-07T06:06:55.961Z,23.17
2018-02-07T06:09:24.107Z,23.97
2018-02-07T06:11:52.242Z,22.83
2018-02-07T06:14:20.378Z,26.30
2018-02-07T06:16:48.521Z,24.33
2018-02-07T06:19:16.656Z,24.57
2018-02-07T06:21:44.763Z,23.53
2018-02-07T06:24:12.892Z,23.30
2018-02-07T06:26:41.778Z,25.20
2018-02-07T06:29:10.687Z,25.10
2018-02-07T06:31:39.705Z,24.63
2018-02-07T06:34:07.881Z,24.27
2018-02-07T06:36:36.010Z,23.17
2018-02-07T06:39:05.755Z,24.33
2018-02-07T06:41:33.871Z,25.87
2018-02-07T06:44:02.033Z,26.20
2018-02-07T06:46:30.139Z,26.63
2018-02-07T06:48:59.052Z,25.77
2018-02-07T06:51:27.167Z,25.27
2018-02-07T06:53:55.306Z,25.17
2018-02-07T06:56:23.423Z,25.83
2018-02-07T06:58:51.578Z,23.70
2018-02-07T07:01:19.718Z,24.97
2018-02-07T07:03:47.851Z,25.13
2018-02-07T07:06:15.961Z,24.50
2018-02-07T07:08:44.106Z,25.70
2018-02-07T07:11:12.220Z,24.67
2018-02-07T07:13:40.368Z,24.50
2018-02-07T07:16:09.245Z,23.07
2018-02-07T07:18:37.406Z,23.33
2018-02-07T07:21:05.519Z,24.17
2018-02-07T07:23:33.660Z,21.20
2018-02-07T07:26:01.777Z,22.00
2018-02-07T07:28:29.906Z,22.63
2018-02-07T07:30:58.085Z,21.63
2018-02-07T07:33:26.215Z,23.47
2018-02-07T07:35:54.342Z,22.37
2018-02-07T07:38:23.247Z,22.47
2018-02-07T07:40:51.360Z,22.17
2018-02-07T07:43:20.294Z,21.37
2018-02-07T07:45:48.405Z,21.27
2018-02-07T07:48:16.539Z,21.73
2018-02-07T07:50:45.430Z,22.27
2018-02-07T07:53:14.340Z,20.90
2018-02-07T07:55:42.455Z,22.43
2018-02-07T07:58:10.603Z,23.77
2018-02-07T08:00:38.715Z,21.47
2018-02-07T08:03:06.831Z,22.80
2018-02-07T08:05:35.023Z,22.77
2018-02-07T08:08:03.198Z,21.20
2018-02-07T08:10:31.343Z,22.90
2018-02-07T08:13:00.235Z,21.03
2018-02-07T08:15:29.878Z,22.07
2018-02-07T08:17:58.001Z,22.20
2018-02-07T08:20:26.157Z,23.00
2018-02-07T08:22:54.275Z,22.10
2018-02-07T08:25:22.403Z,21.40
2018-02-07T08:27:50.522Z,22.63
2018-02-07T08:30:18.757Z,21.93
2018-02-07T08:32:46.869Z,23.17
2018-02-07T08:35:14.996Z,23.13
2018-02-07T08:37:43.132Z,22.27
2018-02-07T08:40:11.284Z,22.80
2018-02-07T08:42:40.868Z,20.93
2018-02-07T08:45:09.788Z,20.37
2018-02-07T08:47:37.921Z,21.23
2018-02-07T08:50:06.054Z,21.30
2018-02-07T08:52:34.166Z,20.80
2018-02-07T08:55:02.316Z,20.87
2018-02-07T08:57:30.413Z,22.00
2018-02-07T08:59:58.547Z,23.40
2018-02-07T09:02:26.662Z,20.93
2018-02-07T09:04:54.799Z,21.37
2018-02-07T09:07:22.911Z,21.00
2018-02-07T09:09:51.049Z,19.83
2018-02-07T09:12:19.150Z,21.17
2018-02-07T09:14:47.293Z,20.70
2018-02-07T09:17:15.408Z,21.20
2018-02-07T09:19:43.560Z,20.50
2018-02-07T09:22:11.669Z,21.87
2018-02-07T09:24:39.829Z,22.67
2018-02-07T09:27:08.725Z,20.23
2018-02-07T09:29:37.619Z,22.07
2018-02-07T09:32:06.521Z,21.83
2018-02-07T09:34:35.402Z,21.90
2018-02-07T09:37:04.282Z,21.40
2018-02-07T09:39:33.179Z,21.40
2018-02-07T09:42:02.071Z,21.10
2018-02-07T09:44:30.967Z,20.60
2018-02-07T09:46:59.846Z,20.93
2018-02-07T09:49:28.783Z,19.90
2018-02-07T09:52:03.456Z,21.87
2018-02-07T09:54:31.594Z,20.33
2018-02-07T09:56:59.737Z,20.67
2018-02-07T09:59:27.869Z,19.30
2018-02-07T10:01:55.985Z,19.70
2018-02-07T10:04:24.129Z,18.83
2018-02-07T10:06:52.249Z,21.80
2018-02-07T10:09:20.396Z,20.90
2018-02-07T10:11:48.513Z,20.30
2018-02-07T10:14:16.663Z,21.50
2018-02-07T10:16:44.787Z,21.37
2018-02-07T10:19:13.236Z,21.97
2018-02-07T10:21:41.374Z,20.20
2018-02-07T10:24:09.512Z,19.00
2018-02-07T10:26:38.397Z,19.73
2018-02-07T10:29:06.962Z,19.60
2018-02-07T10:34:09.599Z,20.70
2018-02-07T10:36:38.482Z,20.67
2018-02-07T10:39:07.440Z,20.40
2018-02-07T10:41:35.561Z,19.53
2018-02-07T10:44:04.444Z,18.13
2018-02-07T10:46:33.339Z,21.30
2018-02-07T10:49:02.225Z,20.03
2018-02-07T10:51:31.131Z,19.40
2018-02-07T10:53:59.253Z,20.37
2018-02-07T10:56:27.392Z,21.10
2018-02-07T10:58:55.530Z,21.00
2018-02-07T11:01:23.684Z,19.40
2018-02-07T11:03:51.800Z,18.17
2018-02-07T11:06:19.943Z,19.33
2018-02-07T11:08:48.069Z,19.77
2018-02-07T11:11:16.219Z,19.07
2018-02-07T11:13:44.329Z,20.47
2018-02-07T11:16:12.467Z,20.10
2018-02-07T11:18:40.575Z,21.47
2018-02-07T11:21:08.721Z,18.67
2018-02-07T11:23:36.844Z,19.57
2018-02-07T11:26:05.305Z,20.03
2018-02-07T11:28:33.413Z,19.50
2018-02-07T11:31:01.550Z,19.60
2018-02-07T11:33:29.675Z,21.90
2018-02-07T11:35:58.197Z,19.37
2018-02-07T11:38:26.308Z,19.53
2018-02-07T11:40:55.131Z,21.60
2018-02-07T11:43:23.991Z,19.13
2018-02-07T11:45:52.661Z,20.07
2018-02-07T11:48:20.780Z,21.37
2018-02-07T11:50:48.926Z,19.83
2018-02-07T11:53:17.040Z,19.50
2018-02-07T11:55:45.167Z,20.33
2018-02-07T11:58:13.275Z,21.07
2018-02-07T12:00:41.418Z,21.50
2018-02-07T12:03:09.533Z,22.27
2018-02-07T12:05:38.463Z,21.07
2018-02-07T12:08:06.589Z,22.90
2018-02-07T12:10:34.738Z,21.77
2018-02-07T12:13:03.684Z,21.83
2018-02-07T12:15:31.833Z,22.13
2018-02-07T12:17:59.949Z,22.27
2018-02-07T12:20:28.079Z,21.97
2018-02-07T12:22:56.223Z,21.10
2018-02-07T12:25:25.140Z,21.80
2018-02-07T12:27:53.250Z,21.80
2018-02-07T12:30:21.379Z,20.20
2018-02-07T12:32:50.250Z,22.03
2018-02-07T12:35:18.384Z,23.73
2018-02-07T12:37:46.499Z,23.27
2018-02-07T12:40:14.642Z,22.63
2018-02-07T12:42:42.762Z,20.33
2018-02-07T12:45:11.667Z,22.23
2018-02-07T12:47:39.790Z,22.10
2018-02-07T12:50:07.923Z,22.70
2018-02-07T12:52:36.039Z,22.53
2018-02-07T12:55:04.174Z,21.90
2018-02-07T12:57:32.283Z,22.70
2018-02-07T13:00:00.443Z,20.83
2018-02-07T13:02:28.596Z,23.10
2018-02-07T13:04:56.739Z,22.03
2018-02-07T13:07:25.611Z,24.00
2018-02-07T13:09:53.759Z,23.13
2018-02-07T13:12:22.646Z,25.20
2018-02-07T13:14:50.799Z,23.80
2018-02-07T13:17:18.925Z,21.13
2018-02-07T13:19:47.039Z,23.07
2018-02-07T13:22:15.180Z,23.13
2018-02-07T13:24:44.056Z,23.77
2018-02-07T13:27:12.202Z,24.07
2018-02-07T13:29:40.305Z,23.57
2018-02-07T13:32:08.459Z,23.97
2018-02-07T13:34:36.574Z,23.70
2018-02-07T13:37:04.710Z,23.13
2018-02-07T13:39:32.811Z,24.77
2018-02-07T13:42:00.946Z,25.20
2018-02-07T13:44:29.049Z,25.73
2018-02-07T13:46:57.198Z,24.23
2018-02-07T13:49:25.306Z,24.07
2018-02-07T13:51:53.442Z,23.67
2018-02-07T13:54:21.551Z,24.20
2018-02-07T13:56:49.689Z,22.93
2018-02-07T13:59:18.558Z,23.07
2018-02-07T14:01:46.703Z,22.90
2018-02-07T14:04:15.584Z,22.73
2018-02-07T14:06:43.820Z,23.80
2018-02-07T14:09:11.949Z,22.60
2018-02-07T14:11:40.845Z,22.70
2018-02-07T14:14:08.975Z,23.73
2018-02-07T14:16:37.131Z,22.33
2018-02-07T14:19:05.236Z,21.60
2018-02-07T14:21:33.367Z,22.40
2018-02-07T14:24:01.466Z,23.60
2018-02-07T14:26:29.604Z,23.80
2018-02-07T14:28:57.736Z,23.50
2018-02-07T14:31:25.899Z,23.40
2018-02-07T14:33:54.008Z,22.67
2018-02-07T14:36:22.137Z,21.90
2018-02-07T14:38:50.252Z,21.70
2018-02-07T14:41:18.598Z,22.03
2018-02-07T14:43:46.840Z,21.23
2018-02-07T14:46:15.756Z,22.93
2018-02-07T14:48:43.895Z,22.33
2018-02-07T14:51:12.050Z,23.73
2018-02-07T14:53:40.215Z,22.60
2018-02-07T14:56:08.336Z,22.97
2018-02-07T14:58:36.464Z,23.10
2018-02-07T15:01:15.330Z,22.33
2018-02-07T15:03:44.232Z,22.77
2018-02-07T15:06:13.152Z,23.23
2018-02-07T15:08:43.168Z,21.20
2018-02-07T15:11:11.335Z,23.37
2018-02-07T15:13:40.243Z,23.50
2018-02-07T15:16:08.383Z,23.57
2018-02-07T15:18:36.508Z,22.93
2018-02-07T15:21:04.647Z,21.17
2018-02-07T15:23:33.559Z,23.00
2018-02-07T15:26:01.704Z,23.40
2018-02-07T15:28:30.609Z,21.30
2018-02-07T15:30:58.750Z,21.83
2018-02-07T15:33:26.855Z,22.87
2018-02-07T15:35:55.014Z,21.67
2018-02-07T15:38:25.512Z,20.70
2018-02-07T15:41:06.026Z,23.40
2018-02-07T15:43:34.908Z,22.63
2018-02-07T15:46:03.861Z,23.67
2018-02-07T15:48:32.302Z,22.27
2018-02-07T15:51:01.263Z,22.90
2018-02-07T15:53:30.487Z,21.90
2018-02-07T15:55:59.390Z,22.37
2018-02-07T15:58:28.774Z,22.47
2018-02-07T16:00:56.913Z,23.07
2018-02-07T16:03:25.024Z,22.87
2018-02-07T16:05:53.168Z,21.47
2018-02-07T16:08:21.291Z,22.00
2018-02-07T16:10:50.204Z,23.57
2018-02-07T16:13:18.348Z,23.10
2018-02-07T16:15:47.257Z,22.50
2018-02-07T16:18:15.424Z,21.97
2018-02-07T16:20:44.327Z,22.30
2018-02-07T16:23:12.456Z,20.83
2018-02-07T16:25:40.611Z,23.00
2018-02-07T16:28:08.753Z,21.97
2018-02-07T16:30:36.928Z,22.37
2018-02-07T16:33:05.813Z,23.30
2018-02-07T16:35:33.934Z,22.33
2018-02-07T16:38:02.226Z,21.77
2018-02-07T16:40:30.350Z,22.00
2018-02-07T16:42:58.493Z,22.00
2018-02-07T16:45:27.371Z,21.47
2018-02-07T16:47:55.524Z,21.10
2018-02-07T16:50:23.631Z,22.97
2018-02-07T16:52:52.619Z,21.73
2018-02-07T16:55:20.791Z,23.07
2018-02-07T16:57:49.706Z,21.97
2018-02-07T17:00:17.816Z,21.17
2018-02-07T17:02:45.960Z,24.30
2018-02-07T17:05:14.084Z,23.50
2018-02-07T17:07:42.878Z,23.13
2018-02-07T17:10:11.331Z,34.13
2018-02-07T17:12:39.954Z,27.57
2018-02-07T17:15:08.931Z,22.37
2018-02-07T17:17:37.145Z,27.10
2018-02-07T17:20:06.032Z,24.07
2018-02-07T17:22:35.268Z,26.33
2018-02-07T17:25:03.386Z,24.70
2018-02-07T17:27:31.529Z,22.10
2018-02-07T17:29:59.655Z,24.07
2018-02-07T17:32:27.801Z,28.57
2018-02-07T17:34:55.930Z,23.17
2018-02-07T17:37:24.072Z,23.30
2018-02-07T17:39:52.973Z,29.30
2018-02-07T17:42:21.131Z,25.10
2018-02-07T17:44:50.009Z,25.20
2018-02-07T17:47:18.164Z,26.00
2018-02-07T17:49:46.295Z,24.57
2018-02-07T17:52:14.439Z,25.67
2018-02-07T17:54:42.561Z,25.53
2018-02-07T17:57:10.705Z,27.27
2018-02-07T17:59:40.563Z,22.73
2018-02-07T18:02:08.704Z,21.57
2018-02-07T18:04:36.815Z,23.23
2018-02-07T18:07:04.957Z,28.30
2018-02-07T18:09:33.064Z,23.20
2018-02-07T18:12:01.213Z,27.50
2018-02-07T18:14:29.391Z,27.27
2018-02-07T18:16:57.555Z,28.90
2018-02-07T18:19:25.668Z,28.37
2018-02-07T18:21:53.821Z,27.50
2018-02-07T18:24:22.729Z,26.50
2018-02-07T18:26:50.860Z,24.33
2018-02-07T18:29:18.983Z,22.67
2018-02-07T18:31:47.176Z,23.03
2018-02-07T18:34:16.067Z,24.00
2018-02-07T18:36:44.985Z,21.90
2018-02-07T18:39:13.098Z,24.10
2018-02-07T18:41:41.248Z,24.77
2018-02-07T18:44:09.364Z,24.27
2018-02-07T18:46:37.510Z,24.13
2018-02-07T18:49:05.698Z,25.20
2018-02-07T18:51:33.824Z,25.57
2018-02-07T18:54:01.960Z,26.00
2018-02-07T18:56:30.084Z,25.73
2018-02-07T18:58:58.234Z,29.70
2018-02-07T19:01:27.154Z,25.27
2018-02-07T19:03:55.300Z,26.70
2018-02-07T19:06:24.220Z,24.30
2018-02-07T19:08:52.364Z,24.47
2018-02-07T19:11:20.495Z,23.87
2018-02-07T19:13:48.628Z,23.83
2018-02-07T19:16:16.835Z,24.60
2018-02-07T19:18:45.019Z,25.73
2018-02-07T19:21:13.127Z,25.10
2018-02-07T19:23:42.036Z,25.20
2018-02-07T19:26:10.151Z,29.90
2018-02-07T19:28:38.293Z,27.30
2018-02-07T19:31:06.416Z,29.53
2018-02-07T19:33:34.578Z,26.47
2018-02-07T19:36:08.244Z,26.83
2018-02-07T19:38:39.409Z,26.37
2018-02-07T19:41:08.680Z,28.40
2018-02-07T19:43:37.677Z,25.77
2018-02-07T19:46:05.799Z,28.63
2018-02-07T19:48:33.952Z,24.63
2018-02-07T19:51:02.836Z,29.77
2018-02-07T19:53:32.174Z,26.43
2018-02-07T19:56:00.526Z,28.30
2018-02-07T19:58:28.835Z,26.93
2018-02-07T20:00:56.980Z,26.63
2018-02-07T20:03:25.638Z,26.63
2018-02-07T20:05:54.506Z,26.77
2018-02-07T20:08:22.651Z,26.13
2018-02-07T20:10:50.867Z,26.50
2018-02-07T20:13:19.761Z,23.47
2018-02-07T20:15:48.650Z,27.10
2018-02-07T20:18:17.607Z,28.93
2018-02-07T20:20:46.978Z,27.07
2018-02-07T20:23:15.132Z,26.77
2018-02-07T20:25:44.009Z,26.57
2018-02-07T20:28:12.159Z,25.87
2018-02-07T20:30:40.258Z,27.67
2018-02-07T20:33:08.535Z,25.27
2018-02-07T20:35:36.647Z,29.67
2018-02-07T20:38:07.262Z,27.03
2018-02-07T20:40:36.053Z,25.80
2018-02-07T20:43:06.255Z,25.90
2018-02-07T20:45:34.370Z,33.93
2018-02-07T20:48:02.536Z,29.50
2018-02-07T20:50:31.435Z,27.80
2018-02-07T20:53:00.189Z,29.47
2018-02-07T20:55:28.291Z,28.07
2018-02-07T20:57:56.434Z,29.93
2018-02-07T21:00:24.547Z,28.93
2018-02-07T21:02:52.674Z,27.23
2018-02-07T21:05:20.787Z,29.80
2018-02-07T21:07:49.676Z,30.70
2018-02-07T21:10:18.255Z,26.07
2018-02-07T21:12:46.404Z,26.57
2018-02-07T21:15:14.539Z,25.57
2018-02-07T21:17:43.242Z,27.23
2018-02-07T21:20:12.175Z,25.90
2018-02-07T21:22:40.314Z,26.13
2018-02-07T21:25:08.433Z,27.17
2018-02-07T21:27:36.567Z,25.90
2018-02-07T21:30:04.692Z,25.80
2018-02-07T21:32:33.595Z,26.63
2018-02-07T21:35:01.963Z,25.27
2018-02-07T21:37:30.895Z,24.30
2018-02-07T21:39:59.004Z,25.30
2018-02-07T21:42:28.389Z,24.67
2018-02-07T21:44:56.528Z,25.70
2018-02-07T21:47:24.647Z,27.67
2018-02-07T21:49:52.939Z,25.53
2018-02-07T21:52:22.141Z,27.10
2018-02-07T21:54:50.283Z,26.23
2018-02-07T21:57:18.395Z,26.93
2018-02-07T21:59:48.139Z,26.47
2018-02-07T22:02:16.247Z,26.10
2018-02-07T22:04:44.384Z,27.47
2018-02-07T22:07:12.490Z,26.87
2018-02-07T22:09:40.622Z,28.10
2018-02-07T22:12:08.800Z,29.70
2018-02-07T22:14:36.944Z,30.37
2018-02-07T22:17:05.064Z,28.60
2018-02-07T22:19:33.212Z,30.07
2018-02-07T22:22:01.451Z,28.43
2018-02-07T22:24:29.596Z,33.80
2018-02-07T22:26:57.718Z,67.40
2018-02-07T22:29:26.626Z,49.13
2018-02-07T22:31:54.738Z,38.63
2018-02-07T22:34:22.891Z,35.47
2018-02-07T22:36:51.000Z,35.07
2018-02-07T22:39:19.513Z,34.73
2018-02-07T22:41:47.624Z,33.97
2018-02-07T22:44:15.759Z,31.90
2018-02-07T22:46:46.513Z,34.17
2018-02-07T22:49:14.661Z,31.73
2018-02-07T22:51:42.758Z,30.60
2018-02-07T22:54:11.665Z,29.50
2018-02-07T22:56:39.791Z,30.13
2018-02-07T22:59:07.918Z,28.30
2018-02-07T23:01:36.044Z,30.00
2018-02-07T23:04:04.175Z,30.57
2018-02-07T23:06:32.305Z,30.77
2018-02-07T23:09:02.281Z,27.77
2018-02-07T23:11:32.112Z,29.07
2018-02-07T23:14:00.243Z,28.63
2018-02-07T23:16:29.135Z,29.87
2018-02-07T23:18:58.036Z,27.27
2018-02-07T23:21:26.153Z,27.40
2018-02-07T23:23:54.312Z,29.97
2018-02-07T23:26:22.815Z,28.50
2018-02-07T23:28:50.958Z,29.43
2018-02-07T23:31:19.083Z,28.90
2018-02-07T23:33:47.215Z,30.80
2018-02-07T23:36:16.870Z,29.03
2018-02-07T23:38:46.158Z,29.63
2018-02-07T23:41:14.270Z,28.60
2018-02-07T23:43:42.408Z,31.07
2018-02-07T23:46:10.512Z,31.83
2018-02-07T23:48:38.650Z,30.73
2018-02-07T23:51:06.794Z,31.10
2018-02-07T23:53:35.926Z,28.93
2018-02-07T23:56:04.038Z,31.40
2018-02-07T23:58:32.176Z,29.00
